createdAt,value
2023-11-12T00:00:20.338Z,95006.03
2023-11-12T00:02:47.776Z,95008.63
2023-11-12T00:05:15.231Z,95046.50
2023-11-12T00:07:42.588Z,94981.34
2023-11-12T00:10:13.826Z,94988.34
2023-11-12T00:15:43.043Z,95023.72
2023-11-12T00:18:10.462Z,95049.69
2023-11-12T00:20:37.930Z,95047.88
2023-11-12T00:23:05.410Z,94971.63
2023-11-12T00:25:32.914Z,95034.88
2023-11-12T00:28:00.519Z,95021.44
2023-11-12T00:30:27.809Z,95049.56
2023-11-12T00:32:55.279Z,95032.94
2023-11-12T00:35:22.672Z,95047.16
2023-11-12T00:37:50.064Z,95010.34
2023-11-12T00:40:17.965Z,95096.38
2023-11-12T00:42:45.509Z,95039.72
2023-11-12T00:45:13.317Z,94966.88
2023-11-12T00:47:40.620Z,94985.81
2023-11-12T00:50:09.987Z,95042.19
2023-11-12T00:52:37.497Z,94982.53
2023-11-12T00:55:05.111Z,95041.09
2023-11-12T00:57:32.708Z,94981.13
2023-11-12T01:00:00.748Z,95050.06
2023-11-12T01:02:30.532Z,94974.50
2023-11-12T01:04:57.935Z,95014.16
2023-11-12T01:07:25.452Z,95016.66
2023-11-12T01:09:52.774Z,95071.44
2023-11-12T01:12:21.047Z,94982.53
2023-11-12T01:14:50.780Z,95076.34
2023-11-12T01:17:18.368Z,94968.47
2023-11-12T01:19:46.116Z,95066.41
2023-11-12T01:22:13.501Z,95009.13
2023-11-12T01:24:41.665Z,95027.47
2023-11-12T01:27:09.524Z,94967.22
2023-11-12T01:29:37.286Z,94993.34
2023-11-12T01:32:05.086Z,95023.91
2023-11-12T01:34:32.399Z,95013.06
2023-11-12T01:37:00.202Z,94979.03
2023-11-12T01:39:28.649Z,94929.16
2023-11-12T01:41:56.349Z,95000.91
2023-11-12T01:44:23.646Z,95070.94
2023-11-12T01:46:53.217Z,95066.97
2023-11-12T01:49:22.378Z,95039.75
2023-11-12T01:51:53.242Z,95023.44
2023-11-12T01:54:20.725Z,95009.97
2023-11-12T01:56:48.463Z,95049.88
2023-11-12T01:59:16.819Z,95017.38
2023-11-12T02:01:44.658Z,94978.41
2023-11-12T02:04:12.657Z,94987.88
2023-11-12T02:06:40.118Z,95013.28
2023-11-12T02:09:07.461Z,95006.19
2023-11-12T02:11:35.971Z,94934.38
2023-11-12T02:14:03.729Z,94977.16
2023-11-12T02:16:49.475Z,94958.63
2023-11-12T02:19:32.087Z,94954.44
2023-11-12T02:21:59.457Z,94932.56
2023-11-12T02:24:26.978Z,94980.97
2023-11-12T02:26:54.446Z,94950.88
2023-11-12T02:29:23.397Z,95043.53
2023-11-12T02:31:51.347Z,94966.13
2023-11-12T02:34:19.957Z,95020.19
2023-11-12T02:36:47.441Z,94944.59
2023-11-12T02:39:16.749Z,94974.03
2023-11-12T02:41:46.561Z,94956.19
2023-11-12T02:44:16.535Z,94960.41
2023-11-12T02:46:44.045Z,95057.84
2023-11-12T02:49:35.249Z,95046.84
2023-11-12T02:52:03.080Z,94950.34
2023-11-12T02:54:30.654Z,94954.47
2023-11-12T02:56:58.252Z,94956.00
2023-11-12T02:59:25.713Z,95028.69
2023-11-12T03:01:52.975Z,94986.59
2023-11-12T03:04:21.739Z,94961.56
2023-11-12T03:06:49.603Z,94957.59
2023-11-12T03:09:17.460Z,94931.03
2023-11-12T03:11:45.358Z,94992.13
2023-11-12T03:14:14.081Z,95064.28
2023-11-12T03:16:41.535Z,94997.91
2023-11-12T03:19:08.918Z,94996.38
2023-11-12T03:21:36.319Z,94985.88
2023-11-12T03:24:04.969Z,94950.88
2023-11-12T03:26:32.595Z,95002.19
2023-11-12T03:29:01.688Z,94955.22
2023-11-12T03:31:29.093Z,94954.47
2023-11-12T03:33:56.759Z,94945.22
2023-11-12T03:36:25.802Z,94902.13
2023-11-12T03:38:53.062Z,94973.34
2023-11-12T03:41:20.410Z,94999.97
2023-11-12T03:43:47.808Z,94992.09
2023-11-12T03:46:18.299Z,95047.81
2023-11-12T03:48:45.749Z,95000.97
2023-11-12T03:51:13.314Z,94974.50
2023-11-12T03:53:41.061Z,95007.72
2023-11-12T03:56:08.514Z,94946.16
2023-11-12T03:58:37.296Z,95058.06
2023-11-12T04:01:04.861Z,95032.41
2023-11-12T04:03:32.270Z,94952.91
2023-11-12T04:05:59.593Z,94957.38
2023-11-12T04:08:27.168Z,95040.03
2023-11-12T04:10:54.683Z,95023.03
2023-11-12T04:13:22.283Z,94979.53
2023-11-12T04:15:49.787Z,94981.47
2023-11-12T04:18:17.466Z,94951.72
2023-11-12T04:20:45.255Z,94947.34
2023-11-12T04:23:12.707Z,94983.16
2023-11-12T04:25:39.995Z,94947.94
2023-11-12T04:28:07.320Z,94977.78
2023-11-12T04:30:35.844Z,94970.97
2023-11-12T04:33:03.369Z,94991.25
2023-11-12T04:35:33.085Z,94989.41
2023-11-12T04:38:00.387Z,95013.34
2023-11-12T04:40:27.872Z,94934.53
2023-11-12T04:42:56.001Z,94918.16
2023-11-12T04:45:23.823Z,95017.06
2023-11-12T04:47:51.167Z,94955.31
2023-11-12T04:50:19.277Z,94999.13
2023-11-12T04:52:48.826Z,94925.25
2023-11-12T04:55:16.170Z,94929.28
2023-11-12T04:57:43.572Z,94966.41
2023-11-12T05:00:13.261Z,94913.53
2023-11-12T05:02:42.456Z,94912.13
2023-11-12T05:05:10.156Z,94911.25
2023-11-12T05:07:37.374Z,94895.19
2023-11-12T05:10:07.027Z,94919.22
2023-11-12T05:12:35.040Z,94914.81
2023-11-12T05:15:02.835Z,94949.63
2023-11-12T05:17:30.569Z,94973.94
2023-11-12T05:19:57.900Z,94926.22
2023-11-12T05:22:25.756Z,94866.13
2023-11-12T05:24:53.047Z,94941.81
2023-11-12T05:27:20.755Z,94947.00
2023-11-12T05:29:48.065Z,94931.63
2023-11-12T05:32:15.632Z,94918.94
2023-11-12T05:34:42.974Z,94880.16
2023-11-12T05:37:10.200Z,94889.66
2023-11-12T05:39:38.300Z,94921.34
2023-11-12T05:42:05.843Z,95007.16
2023-11-12T05:44:33.131Z,94918.59
2023-11-12T05:47:00.529Z,94908.22
2023-11-12T05:49:27.759Z,94885.63
2023-11-12T05:51:54.944Z,94901.38
2023-11-12T05:54:25.231Z,94871.31
2023-11-12T05:56:52.629Z,94961.16
2023-11-12T05:59:19.772Z,94919.34
2023-11-12T06:01:47.061Z,94944.59
2023-11-12T06:04:14.445Z,95013.91
2023-11-12T06:06:43.226Z,94922.91
2023-11-12T06:09:10.601Z,94871.31
2023-11-12T06:11:38.912Z,95019.31
2023-11-12T06:14:06.169Z,94962.09
2023-11-12T06:16:34.597Z,94918.13
2023-11-12T06:19:02.028Z,94917.22
2023-11-12T06:21:30.494Z,95020.44
2023-11-12T06:23:58.288Z,94897.41
2023-11-12T06:26:25.645Z,94989.69
2023-11-12T06:28:52.932Z,95002.38
2023-11-12T06:31:20.468Z,94907.56
2023-11-12T06:33:47.929Z,94919.47
2023-11-12T06:36:15.751Z,94993.03
2023-11-12T06:38:43.085Z,95027.84
2023-11-12T06:41:11.237Z,95028.72
2023-11-12T06:43:39.203Z,95031.78
2023-11-12T06:46:07.381Z,94941.91
2023-11-12T06:48:35.389Z,94967.16
2023-11-12T06:51:02.670Z,94959.47
2023-11-12T06:53:30.042Z,94895.41
2023-11-12T06:55:57.603Z,94987.56
2023-11-12T06:58:26.169Z,94968.22
2023-11-12T07:00:53.783Z,94919.78
2023-11-12T07:03:21.382Z,94973.81
2023-11-12T07:05:49.342Z,94926.78
2023-11-12T07:08:16.774Z,94966.19
2023-11-12T07:10:45.577Z,94976.41
2023-11-12T07:13:12.737Z,94978.13
2023-11-12T07:15:40.929Z,94981.03
2023-11-12T07:18:08.649Z,95025.56
2023-11-12T07:20:35.949Z,94992.19
2023-11-12T07:23:07.228Z,94993.91
2023-11-12T07:25:35.438Z,95019.88
2023-11-12T07:28:04.523Z,95023.34
2023-11-12T07:30:33.208Z,95064.69
2023-11-12T07:33:00.590Z,95058.25
2023-11-12T07:35:27.935Z,94958.56
2023-11-12T07:37:55.374Z,94967.59
2023-11-12T07:40:24.752Z,95046.53
2023-11-12T07:42:52.160Z,95050.47
2023-11-12T07:45:25.679Z,94972.38
2023-11-12T07:47:59.427Z,95028.16
2023-11-12T07:50:26.972Z,94946.84
2023-11-12T07:52:54.335Z,95039.09
2023-11-12T07:55:21.545Z,94998.91
2023-11-12T07:57:48.980Z,95106.63
2023-11-12T08:00:16.694Z,94978.75
2023-11-12T08:02:47.189Z,94967.41
2023-11-12T08:05:15.070Z,94984.88
2023-11-12T08:07:42.889Z,95054.66
2023-11-12T08:10:10.444Z,94984.50
2023-11-12T08:12:39.680Z,95059.84
2023-11-12T08:15:12.187Z,95068.69
2023-11-12T08:17:40.011Z,95122.53
2023-11-12T08:20:07.897Z,95110.59
2023-11-12T08:22:35.194Z,95025.31
2023-11-12T08:25:31.259Z,95088.19
2023-11-12T08:28:02.845Z,95040.41
2023-11-12T08:30:30.857Z,95066.13
2023-11-12T08:32:58.294Z,95075.94
2023-11-12T08:35:25.922Z,95003.88
2023-11-12T08:37:53.395Z,95036.75
2023-11-12T08:40:20.835Z,95013.41
2023-11-12T08:42:48.212Z,95045.19
2023-11-12T08:45:15.902Z,95036.56
2023-11-12T08:47:43.277Z,95085.59
2023-11-12T08:50:11.095Z,95157.41
2023-11-12T08:52:39.734Z,95033.22
2023-11-12T08:55:08.502Z,95078.91
2023-11-12T08:57:38.771Z,95032.91
2023-11-12T09:00:08.107Z,95060.53
2023-11-12T09:02:35.521Z,95098.59
2023-11-12T09:05:03.510Z,95158.16
2023-11-12T09:07:30.864Z,95133.84
2023-11-12T09:09:58.178Z,95096.16
2023-11-12T09:12:25.472Z,94984.03
2023-11-12T09:14:52.750Z,95037.25
2023-11-12T09:17:20.298Z,95080.69
2023-11-12T09:19:48.089Z,95160.06
2023-11-12T09:22:15.474Z,95118.31
2023-11-12T09:25:00.022Z,95133.56
2023-11-12T09:27:56.313Z,95157.09
2023-11-12T09:30:24.402Z,95126.94
2023-11-12T09:32:51.880Z,95161.72
2023-11-12T09:35:20.301Z,95128.66
2023-11-12T09:37:47.537Z,95123.28
2023-11-12T09:40:15.445Z,95095.25
2023-11-12T09:42:51.641Z,95101.47
2023-11-12T09:45:22.561Z,95116.13
2023-11-12T09:47:56.082Z,95196.25
2023-11-12T09:50:24.656Z,95197.03
2023-11-12T09:52:54.343Z,95195.09
2023-11-12T09:55:22.599Z,95054.69
2023-11-12T09:57:50.650Z,95201.28
2023-11-12T10:00:18.598Z,95082.13
2023-11-12T10:02:46.426Z,95122.75
2023-11-12T10:05:15.014Z,95075.81
2023-11-12T10:07:43.255Z,95193.72
2023-11-12T10:10:26.292Z,95195.91
2023-11-12T10:12:54.974Z,95155.31
2023-11-12T10:15:30.958Z,95056.78
2023-11-12T10:18:00.915Z,95183.66
2023-11-12T10:20:33.037Z,95091.03
2023-11-12T10:23:00.536Z,95156.69
2023-11-12T10:25:50.630Z,95053.63
2023-11-12T10:28:18.229Z,95143.13
2023-11-12T10:30:48.240Z,95025.22
2023-11-12T10:33:21.761Z,95189.28
2023-11-12T10:35:49.323Z,95082.47
2023-11-12T10:38:18.903Z,95156.44
2023-11-12T10:41:03.801Z,95111.69
2023-11-12T10:43:36.211Z,95076.06
2023-11-12T10:46:08.603Z,95181.00
2023-11-12T10:48:38.037Z,95151.25
2023-11-12T10:51:12.132Z,95050.31
2023-11-12T10:53:42.576Z,95108.38
2023-11-12T10:56:11.593Z,95087.97
2023-11-12T10:58:39.256Z,95024.63
2023-11-12T11:01:08.983Z,94976.28
2023-11-12T11:03:36.473Z,94999.41
2023-11-12T11:06:05.524Z,95052.69
2023-11-12T11:08:33.083Z,94988.66
2023-11-12T11:11:02.566Z,95046.19
2023-11-12T11:13:30.544Z,95083.78
2023-11-12T11:15:59.721Z,95033.00
2023-11-12T11:18:30.686Z,95176.03
2023-11-12T11:21:16.463Z,95047.75
2023-11-12T11:23:47.054Z,95056.56
2023-11-12T11:26:29.729Z,95171.88
2023-11-12T11:29:06.552Z,95036.22
2023-11-12T11:31:35.183Z,95032.22
2023-11-12T11:34:04.733Z,95039.38
2023-11-12T11:36:32.998Z,95051.19
2023-11-12T11:39:09.212Z,95071.31
2023-11-12T11:41:57.503Z,95174.91
2023-11-12T11:44:40.503Z,95167.56
2023-11-12T11:47:16.095Z,95120.88
2023-11-12T11:50:06.367Z,95043.91
2023-11-12T11:52:33.884Z,95002.94
2023-11-12T11:55:06.654Z,95050.84
2023-11-12T11:57:34.114Z,95002.91
2023-11-12T12:00:02.650Z,95088.63
2023-11-12T12:02:46.217Z,95110.75
2023-11-12T12:05:16.963Z,95133.94
2023-11-12T12:07:47.548Z,95016.88
2023-11-12T12:10:28.390Z,94926.59
2023-11-12T12:12:56.484Z,95093.78
2023-11-12T12:15:24.154Z,95083.50
2023-11-12T12:17:51.583Z,95061.97
2023-11-12T12:20:18.962Z,95002.38
2023-11-12T12:22:46.762Z,95016.81
2023-11-12T12:25:15.600Z,94988.13
2023-11-12T12:27:53.915Z,95062.00
2023-11-12T12:30:21.466Z,95034.41
2023-11-12T12:32:49.799Z,95029.06
2023-11-12T12:35:24.607Z,94962.50
2023-11-12T12:37:52.222Z,95073.31
2023-11-12T12:40:30.177Z,95036.16
2023-11-12T12:42:58.548Z,95122.91
2023-11-12T12:45:26.176Z,95025.84
2023-11-12T12:47:55.407Z,95027.09
2023-11-12T12:50:27.744Z,95031.88
2023-11-12T12:53:15.802Z,94990.72
2023-11-12T12:55:45.407Z,95009.75
2023-11-12T12:58:13.710Z,95040.00
2023-11-12T13:00:45.212Z,95040.59
2023-11-12T13:03:28.286Z,95055.50
2023-11-12T13:05:58.037Z,95021.84
2023-11-12T13:08:25.608Z,95118.16
2023-11-12T13:10:53.092Z,95032.91
2023-11-12T13:13:23.317Z,95110.44
2023-11-12T13:15:50.638Z,94992.03
2023-11-12T13:18:19.629Z,95074.81
2023-11-12T13:20:47.870Z,95136.72
2023-11-12T13:23:18.068Z,95097.88
2023-11-12T13:25:45.640Z,94993.94
2023-11-12T13:28:13.658Z,95008.84
2023-11-12T13:30:41.164Z,95118.13
2023-11-12T13:33:11.129Z,94942.69
2023-11-12T13:35:40.232Z,95074.66
2023-11-12T13:38:11.522Z,95157.13
2023-11-12T13:40:41.302Z,95024.81
2023-11-12T13:43:09.032Z,95015.72
2023-11-12T13:45:39.749Z,95046.28
2023-11-12T13:48:07.895Z,95078.69
2023-11-12T13:50:37.144Z,95036.19
2023-11-12T13:53:11.129Z,95067.16
2023-11-12T13:55:41.386Z,95075.88
2023-11-12T13:58:13.254Z,95083.88
2023-11-12T14:00:43.768Z,95124.56
2023-11-12T14:03:12.594Z,95071.41
2023-11-12T14:05:40.681Z,94981.09
2023-11-12T14:08:12.243Z,95094.09
2023-11-12T14:10:41.182Z,95066.31
2023-11-12T14:13:11.078Z,95067.22
2023-11-12T14:15:39.205Z,95126.97
2023-11-12T14:18:06.560Z,95003.28
2023-11-12T14:20:35.450Z,95020.19
2023-11-12T14:23:02.940Z,95065.34
2023-11-12T14:25:31.809Z,95093.47
2023-11-12T14:27:59.183Z,95128.03
2023-11-12T14:30:26.624Z,95113.91
2023-11-12T14:32:54.330Z,95188.59
2023-11-12T14:35:24.993Z,95084.03
2023-11-12T14:37:52.695Z,95113.81
2023-11-12T14:40:20.039Z,95030.44
2023-11-12T14:42:47.709Z,95134.06
2023-11-12T14:47:46.731Z,95100.22
2023-11-12T14:50:17.203Z,95119.72
2023-11-12T14:52:44.902Z,95100.03
2023-11-12T14:55:22.022Z,95159.97
2023-11-12T14:57:56.461Z,95081.59
2023-11-12T15:00:29.981Z,95083.06
2023-11-12T15:03:00.344Z,95136.38
2023-11-12T15:05:29.938Z,95037.84
2023-11-12T15:07:57.403Z,95089.47
2023-11-12T15:10:24.872Z,95106.00
2023-11-12T15:12:52.684Z,95134.09
2023-11-12T15:15:21.446Z,95124.91
2023-11-12T15:17:49.660Z,95146.44
2023-11-12T15:20:17.969Z,95167.00
2023-11-12T15:22:47.296Z,95146.38
2023-11-12T15:25:15.732Z,95119.41
2023-11-12T15:27:47.259Z,95100.31
2023-11-12T15:30:15.345Z,95083.25
2023-11-12T15:32:44.135Z,95192.41
2023-11-12T15:35:40.882Z,95191.28
2023-11-12T15:38:08.328Z,95140.69
2023-11-12T15:40:37.561Z,95101.41
2023-11-12T15:43:07.801Z,95062.34
2023-11-12T15:45:35.286Z,95131.38
2023-11-12T15:48:02.802Z,95142.75
2023-11-12T15:50:31.779Z,95117.84
2023-11-12T15:53:00.603Z,95094.72
2023-11-12T15:55:30.793Z,95103.16
2023-11-12T15:57:59.129Z,95096.03
2023-11-12T16:00:26.447Z,95127.06
2023-11-12T16:02:57.135Z,95051.00
2023-11-12T16:05:30.977Z,95119.41
2023-11-12T16:07:58.938Z,95132.63
2023-11-12T16:10:26.205Z,95120.97
2023-11-12T16:12:53.563Z,95114.47
2023-11-12T16:15:21.250Z,95072.22
2023-11-12T16:17:50.485Z,95148.72
2023-11-12T16:20:17.704Z,95188.84
2023-11-12T16:22:47.996Z,95135.97
2023-11-12T16:25:15.837Z,95108.88
2023-11-12T16:27:43.256Z,95090.72
2023-11-12T16:30:12.702Z,95133.53
2023-11-12T16:32:40.060Z,95068.63
2023-11-12T16:35:12.352Z,95131.25
2023-11-12T16:38:16.116Z,95206.47
2023-11-12T16:40:47.667Z,95091.31
2023-11-12T16:43:16.174Z,95118.75
2023-11-12T16:45:44.323Z,95092.34
2023-11-12T16:48:11.776Z,95076.75
2023-11-12T16:50:39.140Z,95123.88
2023-11-12T16:53:06.456Z,95155.19
2023-11-12T16:55:33.792Z,95138.31
2023-11-12T16:58:01.118Z,95097.63
2023-11-12T17:00:30.655Z,95129.66
2023-11-12T17:02:58.091Z,95118.00
2023-11-12T17:05:25.436Z,95133.13
2023-11-12T17:07:52.929Z,95174.44
2023-11-12T17:10:20.361Z,95087.75
2023-11-12T17:12:51.594Z,95099.41
2023-11-12T17:15:19.056Z,95097.00
2023-11-12T17:17:49.648Z,95097.22
2023-11-12T17:20:17.739Z,95206.63
2023-11-12T17:22:45.221Z,95119.22
2023-11-12T17:25:13.559Z,95224.59
2023-11-12T17:27:41.985Z,95080.72
2023-11-12T17:30:10.633Z,95247.84
2023-11-12T17:32:39.429Z,95145.78
2023-11-12T17:35:07.372Z,95172.06
2023-11-12T17:37:34.823Z,95208.56
2023-11-12T17:40:37.204Z,95212.91
2023-11-12T17:43:04.618Z,95231.94
2023-11-12T17:45:34.978Z,95125.94
2023-11-12T17:48:02.359Z,95165.81
2023-11-12T17:50:29.739Z,95197.34
2023-11-12T17:52:57.045Z,95151.44
2023-11-12T17:55:24.413Z,95126.22
2023-11-12T17:57:51.712Z,95098.28
2023-11-12T18:00:19.474Z,95083.38
2023-11-12T18:02:48.308Z,95071.38
2023-11-12T18:05:16.327Z,95154.53
2023-11-12T18:07:44.164Z,95079.47
2023-11-12T18:10:12.905Z,95251.41
2023-11-12T18:12:42.884Z,95194.78
2023-11-12T18:15:11.283Z,95124.97
2023-11-12T18:17:38.783Z,95192.72
2023-11-12T18:20:06.898Z,95216.41
2023-11-12T18:22:35.283Z,95149.16
2023-11-12T18:25:03.824Z,95141.31
2023-11-12T18:27:31.241Z,95229.56
2023-11-12T18:29:58.542Z,95147.66
2023-11-12T18:32:25.936Z,95162.47
2023-11-12T18:34:53.637Z,95259.34
2023-11-12T18:37:20.982Z,95157.94
2023-11-12T18:39:48.302Z,95135.75
2023-11-12T18:42:15.487Z,95284.69
2023-11-12T18:44:42.789Z,95169.09
2023-11-12T18:47:14.185Z,95163.38
2023-11-12T18:49:44.140Z,95183.63
2023-11-12T18:52:15.373Z,95186.88
2023-11-12T18:54:44.381Z,95043.53
2023-11-12T18:57:11.636Z,95089.34
2023-11-12T18:59:39.322Z,95283.66
2023-11-12T19:02:06.675Z,95175.44
2023-11-12T19:04:34.777Z,95204.91
2023-11-12T19:07:02.127Z,95231.69
2023-11-12T19:09:29.343Z,95230.53
2023-11-12T19:11:56.579Z,95231.25
2023-11-12T19:14:24.002Z,95174.72
2023-11-12T19:16:51.558Z,95130.06
2023-11-12T19:19:21.564Z,95150.41
2023-11-12T19:21:49.536Z,95137.78
2023-11-12T19:24:16.891Z,95097.94
2023-11-12T19:26:44.198Z,95295.53
2023-11-12T19:29:13.494Z,95298.06
2023-11-12T19:31:41.116Z,95178.91
2023-11-12T19:34:10.466Z,95112.72
2023-11-12T19:36:40.981Z,95142.72
2023-11-12T19:39:14.509Z,95112.88
2023-11-12T19:41:43.751Z,95246.63
2023-11-12T19:44:11.293Z,95202.97
2023-11-12T19:46:43.354Z,95183.84
2023-11-12T19:49:12.021Z,95166.69
2023-11-12T19:51:40.490Z,95116.31
2023-11-12T19:54:08.901Z,95100.81
2023-11-12T19:56:36.474Z,95248.69
2023-11-12T19:59:03.776Z,95118.25
2023-11-12T20:01:31.322Z,95124.69
2023-11-12T20:03:58.956Z,95191.28
2023-11-12T20:06:27.492Z,95082.66
2023-11-12T20:08:54.885Z,95214.97
2023-11-12T20:11:22.967Z,95133.72
2023-11-12T20:13:53.562Z,95164.91
2023-11-12T20:16:20.927Z,95168.34
2023-11-12T20:18:48.524Z,95099.03
2023-11-12T20:21:15.885Z,95274.50
2023-11-12T20:23:46.281Z,95240.84
2023-11-12T20:26:13.670Z,95239.72
2023-11-12T20:28:41.124Z,95245.59
2023-11-12T20:31:08.448Z,95216.63
2023-11-12T20:33:37.766Z,95245.34
2023-11-12T20:36:05.342Z,95236.44
2023-11-12T20:38:36.316Z,95223.97
2023-11-12T20:41:03.839Z,95136.56
2023-11-12T20:43:31.795Z,95275.44
2023-11-12T20:46:00.310Z,95277.88
2023-11-12T20:48:28.111Z,95228.47
2023-11-12T20:50:55.444Z,95302.78
2023-11-12T20:53:22.932Z,95310.25
2023-11-12T20:55:50.438Z,95210.06
2023-11-12T20:58:18.052Z,95338.47
2023-11-12T21:00:45.639Z,95164.56
2023-11-12T21:03:13.237Z,95312.94
2023-11-12T21:05:40.767Z,95286.63
2023-11-12T21:08:08.153Z,95301.72
2023-11-12T21:10:37.205Z,95169.78
2023-11-12T21:13:04.789Z,95336.19
2023-11-12T21:15:32.129Z,95157.28
2023-11-12T21:17:59.927Z,95206.59
2023-11-12T21:20:27.326Z,95238.72
2023-11-12T21:22:54.674Z,95127.53
2023-11-12T21:25:22.101Z,95169.88
2023-11-12T21:27:49.529Z,95214.03
2023-11-12T21:30:22.981Z,95146.47
2023-11-12T21:32:50.342Z,95201.78
2023-11-12T21:35:20.951Z,95247.44
2023-11-12T21:37:48.535Z,95197.59
2023-11-12T21:40:15.889Z,95196.25
2023-11-12T21:42:44.375Z,95153.97
2023-11-12T21:45:19.215Z,95157.63
2023-11-12T21:47:47.242Z,95159.81
2023-11-12T21:50:17.353Z,95178.94
2023-11-12T21:52:44.990Z,95310.44
2023-11-12T21:55:12.323Z,95220.91
2023-11-12T21:57:39.838Z,95228.06
2023-11-12T22:00:13.202Z,95236.81
2023-11-12T22:02:42.892Z,95347.50
2023-11-12T22:05:11.530Z,95319.34
2023-11-12T22:07:39.720Z,95297.63
2023-11-12T22:10:10.060Z,95283.69
2023-11-12T22:12:40.545Z,95293.22
2023-11-12T22:15:10.612Z,95277.50
2023-11-12T22:17:37.891Z,95259.28
2023-11-12T22:20:06.889Z,95286.00
2023-11-12T22:22:34.276Z,95396.25
2023-11-12T22:25:09.025Z,95219.16
2023-11-12T22:27:47.064Z,95273.53
2023-11-12T22:30:16.743Z,95319.69
2023-11-12T22:32:49.424Z,95248.81
2023-11-12T22:35:16.906Z,95286.72
2023-11-12T22:37:44.377Z,95184.22
2023-11-12T22:40:13.507Z,95329.84
2023-11-12T22:42:41.082Z,95281.06
2023-11-12T22:45:14.125Z,95277.50
2023-11-12T22:47:42.757Z,95328.91
2023-11-12T22:50:11.300Z,95326.41
2023-11-12T22:52:38.562Z,95254.00
2023-11-12T22:55:07.990Z,95227.31
2023-11-12T22:57:36.725Z,95353.56
2023-11-12T23:00:14.954Z,95367.72
2023-11-12T23:02:45.786Z,95434.31
2023-11-12T23:05:16.235Z,95237.66
2023-11-12T23:07:43.695Z,95302.00
2023-11-12T23:10:12.569Z,95312.63
2023-11-12T23:12:39.920Z,95341.84
2023-11-12T23:15:07.861Z,95292.19
2023-11-12T23:17:35.284Z,95276.13
2023-11-12T23:20:04.504Z,95326.91
2023-11-12T23:22:31.759Z,95226.25
2023-11-12T23:24:59.091Z,95173.81
2023-11-12T23:27:26.696Z,95364.19
2023-11-12T23:29:54.099Z,95319.94
2023-11-12T23:32:21.429Z,95195.47
2023-11-12T23:34:49.272Z,95244.69
2023-11-12T23:37:16.623Z,95337.16
2023-11-12T23:39:44.919Z,95315.16
2023-11-12T23:42:13.022Z,95234.41
2023-11-12T23:44:40.560Z,95349.78
2023-11-12T23:47:08.721Z,95268.63
2023-11-12T23:49:36.087Z,95287.63
2023-11-12T23:52:03.725Z,95260.34
2023-11-12T23:54:30.961Z,95287.09
2023-11-12T23:56:58.965Z,95325.34
2023-11-12T23:59:26.583Z,95240.78
